createdAt,value
2023-04-22T00:00:08.867Z,5.60
2023-04-22T00:01:13.225Z,5.59
2023-04-22T00:02:17.485Z,5.58
2023-04-22T00:03:21.719Z,5.56
2023-04-22T00:04:26.076Z,5.55
2023-04-22T00:05:30.140Z,5.53
2023-04-22T00:06:34.264Z,5.52
2023-04-22T00:07:38.473Z,5.52
2023-04-22T00:08:42.785Z,5.50
2023-04-22T00:09:47.180Z,5.48
2023-04-22T00:10:51.335Z,5.45
2023-04-22T00:11:55.618Z,5.44
2023-04-22T00:12:59.917Z,5.43
2023-04-22T00:14:04.126Z,5.42
2023-04-22T00:15:08.388Z,5.42
2023-04-22T00:16:12.677Z,5.42
2023-04-22T00:17:16.902Z,5.43
2023-04-22T00:18:21.090Z,5.43
2023-04-22T00:19:25.311Z,5.43
2023-04-22T00:20:29.690Z,5.44
2023-04-22T00:21:33.848Z,5.45
2023-04-22T00:22:38.229Z,5.47
2023-04-22T00:23:42.607Z,5.48
2023-04-22T00:24:46.799Z,5.49
2023-04-22T00:25:51.079Z,5.49
2023-04-22T00:26:55.371Z,5.51
2023-04-22T00:27:59.684Z,5.51
2023-04-22T00:29:03.931Z,5.51
2023-04-22T00:30:08.144Z,5.51
2023-04-22T00:31:12.533Z,5.50
2023-04-22T00:32:16.786Z,5.50
2023-04-22T00:33:21.123Z,5.50
2023-04-22T00:34:25.420Z,5.49
2023-04-22T00:35:29.733Z,5.51
2023-04-22T00:36:33.927Z,5.51
2023-04-22T00:37:38.167Z,5.51
2023-04-22T00:38:42.435Z,5.51
2023-04-22T00:39:46.648Z,5.50
2023-04-22T00:40:50.924Z,5.49
2023-04-22T00:41:55.146Z,5.50
2023-04-22T00:42:59.425Z,5.51
2023-04-22T00:44:06.731Z,5.51
2023-04-22T00:45:10.061Z,5.51
2023-04-22T00:46:14.289Z,5.51
2023-04-22T00:47:18.576Z,5.52
2023-04-22T00:48:22.849Z,5.51
2023-04-22T00:49:27.113Z,5.52
2023-04-22T00:50:31.519Z,5.51
2023-04-22T00:51:35.825Z,5.51
2023-04-22T00:52:40.051Z,5.50
2023-04-22T00:53:44.333Z,5.48
2023-04-22T00:54:48.561Z,5.48
2023-04-22T00:55:52.726Z,5.50
2023-04-22T00:57:03.184Z,5.50
2023-04-22T00:58:06.035Z,5.51
2023-04-22T00:59:10.269Z,5.51
2023-04-22T01:00:14.537Z,5.52
2023-04-22T01:01:18.925Z,5.52
2023-04-22T01:02:23.161Z,5.51
2023-04-22T01:03:27.384Z,5.50
2023-04-22T01:04:31.614Z,5.49
2023-04-22T01:05:35.891Z,5.46
2023-04-22T01:06:40.186Z,5.45
2023-04-22T01:07:44.389Z,5.42
2023-04-22T01:08:48.714Z,5.39
2023-04-22T01:09:52.956Z,5.35
2023-04-22T01:10:57.210Z,5.32
2023-04-22T01:12:01.537Z,5.30
2023-04-22T01:13:05.657Z,5.29
2023-04-22T01:14:09.889Z,5.29
2023-04-22T01:15:14.261Z,5.29
2023-04-22T01:16:18.547Z,5.28
2023-04-22T01:17:22.763Z,5.28
2023-04-22T01:18:27.003Z,5.28
2023-04-22T01:19:31.278Z,5.29
2023-04-22T01:20:35.505Z,5.28
2023-04-22T01:21:39.795Z,5.27
2023-04-22T01:22:44.037Z,5.28
2023-04-22T01:23:48.181Z,5.27
2023-04-22T01:25:06.586Z,5.27
2023-04-22T01:26:09.840Z,5.28
2023-04-22T01:27:14.147Z,5.29
2023-04-22T01:28:18.381Z,5.29
2023-04-22T01:29:22.524Z,5.30
2023-04-22T01:30:26.874Z,5.31
2023-04-22T01:31:31.134Z,5.31
2023-04-22T01:32:35.433Z,5.32
2023-04-22T01:33:39.757Z,5.32
2023-04-22T01:34:44.058Z,5.31
2023-04-22T01:35:48.356Z,5.29
2023-04-22T01:36:52.665Z,5.28
2023-04-22T01:37:56.849Z,5.28
2023-04-22T01:39:01.037Z,5.28
2023-04-22T01:40:05.341Z,5.28
2023-04-22T01:41:09.611Z,5.29
2023-04-22T01:42:13.895Z,5.28
2023-04-22T01:43:18.132Z,5.28
2023-04-22T01:44:22.439Z,5.29
2023-04-22T01:45:26.709Z,5.28
2023-04-22T01:46:31.029Z,5.29
2023-04-22T01:47:35.258Z,5.30
2023-04-22T01:48:39.547Z,5.30
2023-04-22T01:49:57.713Z,5.31
2023-04-22T01:51:00.852Z,5.32
2023-04-22T01:52:05.010Z,5.34
2023-04-22T01:53:09.287Z,5.34
2023-04-22T01:54:13.584Z,5.34
2023-04-22T01:55:17.863Z,5.31
2023-04-22T01:56:22.162Z,5.30
2023-04-22T01:57:26.314Z,5.29
2023-04-22T01:58:30.608Z,5.28
2023-04-22T01:59:34.889Z,5.28
2023-04-22T02:00:39.159Z,5.26
2023-04-22T02:01:43.457Z,5.25
2023-04-22T02:02:47.858Z,5.27
2023-04-22T02:03:52.113Z,5.27
2023-04-22T02:04:56.284Z,5.27
2023-04-22T02:06:00.513Z,5.27
2023-04-22T02:07:04.839Z,5.26
2023-04-22T02:08:09.074Z,5.26
2023-04-22T02:09:13.260Z,5.27
2023-04-22T02:10:17.583Z,5.27
2023-04-22T02:11:21.849Z,5.27
2023-04-22T02:12:26.012Z,5.27
2023-04-22T02:13:30.313Z,5.27
2023-04-22T02:14:34.544Z,5.28
2023-04-22T02:15:41.852Z,5.24
2023-04-22T02:16:45.144Z,5.23
2023-04-22T02:17:49.404Z,5.23
2023-04-22T02:18:53.668Z,5.21
2023-04-22T02:19:57.908Z,5.20
2023-04-22T02:21:02.082Z,5.17
2023-04-22T02:22:06.384Z,5.16
2023-04-22T02:23:10.541Z,5.15
2023-04-22T02:24:14.899Z,5.14
2023-04-22T02:25:19.117Z,5.13
2023-04-22T02:26:23.285Z,5.12
2023-04-22T02:27:27.530Z,5.13
2023-04-22T02:28:31.843Z,5.12
2023-04-22T02:29:35.995Z,5.11
2023-04-22T02:30:40.271Z,5.11
2023-04-22T02:31:44.517Z,5.12
2023-04-22T02:32:48.788Z,5.14
2023-04-22T02:33:53.051Z,5.16
2023-04-22T02:34:57.225Z,5.18
2023-04-22T02:36:01.537Z,5.20
2023-04-22T02:37:05.770Z,5.21
2023-04-22T02:38:10.062Z,5.22
2023-04-22T02:39:14.336Z,5.24
2023-04-22T02:40:18.627Z,5.25
2023-04-22T02:41:22.890Z,5.27
2023-04-22T02:42:27.134Z,5.27
2023-04-22T02:43:31.415Z,5.27
2023-04-22T02:44:35.725Z,5.29
2023-04-22T02:45:39.887Z,5.29
2023-04-22T02:46:44.268Z,5.30
2023-04-22T02:47:48.485Z,5.30
2023-04-22T02:48:52.716Z,5.30
2023-04-22T02:49:57.020Z,5.29
2023-04-22T02:51:01.254Z,5.29
2023-04-22T02:52:05.435Z,5.29
2023-04-22T02:53:09.658Z,5.30
2023-04-22T02:54:13.837Z,5.28
2023-04-22T02:55:18.215Z,5.30
2023-04-22T02:56:22.325Z,5.30
2023-04-22T02:57:26.650Z,5.30
2023-04-22T02:58:30.889Z,5.31
2023-04-22T02:59:35.133Z,5.30
2023-04-22T03:00:39.312Z,5.31
2023-04-22T03:01:46.563Z,5.31
2023-04-22T03:02:49.902Z,5.31
2023-04-22T03:03:54.185Z,5.30
2023-04-22T03:04:58.418Z,5.29
2023-04-22T03:06:02.661Z,5.27
2023-04-22T03:07:06.776Z,5.27
2023-04-22T03:08:11.103Z,5.26
2023-04-22T03:09:15.282Z,5.26
2023-04-22T03:10:19.587Z,5.25
2023-04-22T03:11:23.804Z,5.25
2023-04-22T03:12:28.058Z,5.23
2023-04-22T03:13:32.329Z,5.24
2023-04-22T03:14:36.587Z,5.22
2023-04-22T03:15:40.868Z,5.21
2023-04-22T03:16:45.130Z,5.20
2023-04-22T03:17:49.374Z,5.18
2023-04-22T03:18:53.615Z,5.15
2023-04-22T03:19:57.859Z,5.14
2023-04-22T03:21:02.166Z,5.14
2023-04-22T03:22:06.375Z,5.13
2023-04-22T03:23:10.664Z,5.13
2023-04-22T03:24:14.785Z,5.13
2023-04-22T03:25:19.092Z,5.13
2023-04-22T03:26:23.360Z,5.14
2023-04-22T03:27:27.603Z,5.14
2023-04-22T03:28:31.896Z,5.13
2023-04-22T03:29:42.514Z,5.13
2023-04-22T03:30:45.045Z,5.13
2023-04-22T03:31:49.295Z,5.12
2023-04-22T03:32:53.454Z,5.12
2023-04-22T03:33:57.705Z,5.12
2023-04-22T03:35:01.910Z,5.13
2023-04-22T03:36:06.179Z,5.13
2023-04-22T03:37:10.503Z,5.13
2023-04-22T03:38:14.584Z,5.13
2023-04-22T03:39:21.821Z,5.12
2023-04-22T03:40:25.201Z,5.13
2023-04-22T03:41:29.333Z,5.13
2023-04-22T03:42:33.652Z,5.14
2023-04-22T03:43:37.807Z,5.15
2023-04-22T03:44:41.994Z,5.15
2023-04-22T03:45:46.356Z,5.16
2023-04-22T03:46:50.509Z,5.17
2023-04-22T03:47:54.816Z,5.19
2023-04-22T03:48:58.991Z,5.19
2023-04-22T03:50:03.307Z,5.21
2023-04-22T03:51:07.615Z,5.22
2023-04-22T03:52:11.786Z,5.24
2023-04-22T03:53:15.988Z,5.24
2023-04-22T03:54:20.324Z,5.24
2023-04-22T03:55:24.534Z,5.23
2023-04-22T03:56:28.823Z,5.23
2023-04-22T03:57:33.072Z,5.22
2023-04-22T03:58:37.229Z,5.21
2023-04-22T03:59:41.750Z,5.22
2023-04-22T04:00:45.654Z,5.21
2023-04-22T04:01:49.960Z,5.23
2023-04-22T04:02:54.375Z,5.25
2023-04-22T04:03:58.624Z,5.27
2023-04-22T04:05:02.887Z,5.27
2023-04-22T04:06:06.919Z,5.28
2023-04-22T04:07:11.003Z,5.26
2023-04-22T04:08:15.360Z,5.23
2023-04-22T04:09:19.471Z,5.22
2023-04-22T04:10:23.695Z,5.20
2023-04-22T04:11:27.899Z,5.20
2023-04-22T04:12:32.150Z,5.20
2023-04-22T04:13:36.457Z,5.19
2023-04-22T04:14:40.617Z,5.18
2023-04-22T04:15:44.978Z,5.19
2023-04-22T04:16:49.086Z,5.21
2023-04-22T04:17:53.467Z,5.22
2023-04-22T04:18:57.642Z,5.24
2023-04-22T04:20:01.903Z,5.24
2023-04-22T04:21:06.065Z,5.28
2023-04-22T04:22:10.367Z,5.33
2023-04-22T04:23:14.647Z,5.37
2023-04-22T04:24:18.834Z,5.39
2023-04-22T04:25:23.129Z,5.42
2023-04-22T04:26:27.291Z,5.46
2023-04-22T04:27:31.610Z,5.49
2023-04-22T04:28:35.892Z,5.52
2023-04-22T04:29:40.482Z,5.56
2023-04-22T04:30:44.274Z,5.59
2023-04-22T04:31:48.684Z,5.60
2023-04-22T04:32:52.895Z,5.60
2023-04-22T04:33:57.088Z,5.62
2023-04-22T04:35:01.372Z,5.63
2023-04-22T04:36:05.536Z,5.62
2023-04-22T04:37:09.865Z,5.63
2023-04-22T04:38:14.102Z,5.63
2023-04-22T04:39:18.299Z,5.65
2023-04-22T04:40:22.662Z,5.67
2023-04-22T04:41:26.905Z,5.68
2023-04-22T04:42:31.186Z,5.71
2023-04-22T04:43:35.375Z,5.74
2023-04-22T04:44:39.631Z,5.77
2023-04-22T04:45:46.216Z,5.80
2023-04-22T04:46:48.134Z,5.84
2023-04-22T04:47:52.425Z,5.86
2023-04-22T04:48:56.686Z,5.89
2023-04-22T04:50:00.880Z,5.93
2023-04-22T04:51:05.146Z,5.97
2023-04-22T04:52:09.443Z,6.02
2023-04-22T04:53:13.571Z,6.05
2023-04-22T04:54:17.897Z,6.10
2023-04-22T04:55:22.108Z,6.14
2023-04-22T04:56:26.287Z,6.18
2023-04-22T04:57:30.564Z,6.22
2023-04-22T04:58:34.834Z,6.27
2023-04-22T04:59:39.355Z,6.31
2023-04-22T05:00:43.356Z,6.37
2023-04-22T05:01:47.710Z,6.42
2023-04-22T05:02:51.982Z,6.47
2023-04-22T05:03:56.219Z,6.53
2023-04-22T05:05:00.405Z,6.59
2023-04-22T05:06:04.657Z,6.65
2023-04-22T05:07:08.924Z,6.72
2023-04-22T05:08:13.250Z,6.77
2023-04-22T05:09:17.492Z,6.82
2023-04-22T05:10:21.662Z,6.88
2023-04-22T05:11:25.978Z,6.93
2023-04-22T05:12:30.265Z,6.99
2023-04-22T05:13:34.536Z,7.04
2023-04-22T05:14:38.780Z,7.11
2023-04-22T05:15:43.091Z,7.15
2023-04-22T05:16:47.258Z,7.20
2023-04-22T05:17:51.514Z,7.26
2023-04-22T05:18:55.736Z,7.32
2023-04-22T05:19:59.953Z,7.37
2023-04-22T05:21:04.108Z,7.43
2023-04-22T05:22:22.516Z,7.48
2023-04-22T05:23:25.535Z,7.54
2023-04-22T05:24:29.791Z,7.60
2023-04-22T05:25:33.954Z,7.66
2023-04-22T05:26:38.258Z,7.74
2023-04-22T05:27:42.547Z,7.83
2023-04-22T05:28:46.834Z,7.91
2023-04-22T05:29:51.172Z,7.98
2023-04-22T05:30:55.423Z,8.05
2023-04-22T05:31:59.756Z,8.08
2023-04-22T05:33:04.061Z,8.08
2023-04-22T05:34:08.282Z,8.11
2023-04-22T05:35:12.477Z,8.14
2023-04-22T05:36:16.834Z,8.15
2023-04-22T05:37:21.000Z,8.17
2023-04-22T05:38:25.345Z,8.19
2023-04-22T05:39:29.660Z,8.16
2023-04-22T05:40:33.852Z,8.15
2023-04-22T05:41:38.270Z,8.12
2023-04-22T05:42:42.363Z,8.08
2023-04-22T05:43:46.838Z,8.10
2023-04-22T05:44:51.067Z,8.07
2023-04-22T05:45:55.458Z,8.04
2023-04-22T05:46:59.704Z,8.05
2023-04-22T05:48:04.057Z,8.04
2023-04-22T05:49:08.316Z,8.04
2023-04-22T05:50:12.530Z,8.07
2023-04-22T05:51:16.872Z,8.07
2023-04-22T05:52:21.194Z,8.10
2023-04-22T05:53:25.475Z,8.12
2023-04-22T05:54:29.780Z,8.17
2023-04-22T05:55:34.092Z,8.23
2023-04-22T05:56:38.387Z,8.31
2023-04-22T05:59:09.913Z,8.47
2023-04-22T06:00:13.959Z,8.58
2023-04-22T06:01:32.376Z,8.63
2023-04-22T06:02:35.703Z,8.64
2023-04-22T06:03:40.185Z,8.65
2023-04-22T06:04:47.316Z,8.66
2023-04-22T06:05:50.591Z,8.61
2023-04-22T06:06:54.877Z,8.60
2023-04-22T06:07:59.171Z,8.53
2023-04-22T06:09:03.469Z,8.52
2023-04-22T06:10:07.806Z,8.56
2023-04-22T06:11:12.131Z,8.56
2023-04-22T06:12:16.455Z,8.58
2023-04-22T06:13:20.744Z,8.62
2023-04-22T06:14:25.117Z,8.65
2023-04-22T06:15:29.548Z,8.62
2023-04-22T06:16:33.807Z,8.59
2023-04-22T06:17:38.157Z,8.59
2023-04-22T06:18:42.499Z,8.64
2023-04-22T06:19:46.797Z,8.79
2023-04-22T06:20:51.220Z,8.90
2023-04-22T06:21:55.550Z,8.77
2023-04-22T06:22:59.902Z,8.85
2023-04-22T06:24:04.215Z,8.96
2023-04-22T06:25:08.571Z,9.05
2023-04-22T06:26:12.963Z,8.96
2023-04-22T06:27:17.275Z,8.89
2023-04-22T06:28:21.603Z,8.95
2023-04-22T06:29:25.970Z,8.90
2023-04-22T06:30:30.312Z,8.80
2023-04-22T06:31:48.778Z,8.82
2023-04-22T06:32:51.952Z,9.03
2023-04-22T06:33:56.227Z,9.26
2023-04-22T06:35:00.546Z,9.33
2023-04-22T06:36:04.900Z,9.12
2023-04-22T06:37:09.235Z,9.02
2023-04-22T06:38:13.534Z,8.88
2023-04-22T06:39:17.843Z,9.00
2023-04-22T06:40:22.159Z,9.00
2023-04-22T06:41:26.497Z,9.05
2023-04-22T06:42:30.832Z,9.02
2023-04-22T06:43:35.146Z,9.01
2023-04-22T06:44:39.496Z,8.95
2023-04-22T06:45:43.866Z,8.98
2023-04-22T06:46:48.176Z,9.12
2023-04-22T06:47:52.482Z,9.22
2023-04-22T06:48:56.843Z,9.23
2023-04-22T06:50:01.180Z,9.12
2023-04-22T06:51:05.547Z,9.28
2023-04-22T06:52:09.974Z,9.42
2023-04-22T06:53:14.248Z,9.33
2023-04-22T06:54:18.580Z,9.15
2023-04-22T06:55:22.935Z,9.19
2023-04-22T06:56:27.292Z,9.11
2023-04-22T06:57:31.637Z,9.11
2023-04-22T06:58:35.990Z,9.19
2023-04-22T06:59:40.876Z,9.18
2023-04-22T07:00:58.689Z,9.05
2023-04-22T07:02:01.980Z,9.19
2023-04-22T07:03:06.346Z,9.31
2023-04-22T07:04:10.612Z,9.41
2023-04-22T07:05:14.949Z,9.55
2023-04-22T07:06:19.422Z,9.64
2023-04-22T07:07:23.619Z,9.63
2023-04-22T07:08:27.961Z,9.42
2023-04-22T07:09:32.383Z,9.25
2023-04-22T07:10:36.745Z,9.23
2023-04-22T07:11:40.996Z,9.22
2023-04-22T07:12:59.215Z,9.39
2023-04-22T07:14:02.584Z,9.52
2023-04-22T07:15:12.897Z,9.52
2023-04-22T07:16:16.055Z,9.26
2023-04-22T07:17:20.171Z,9.36
2023-04-22T07:18:24.480Z,9.37
2023-04-22T07:19:28.713Z,9.30
2023-04-22T07:20:33.069Z,9.07
2023-04-22T07:21:37.524Z,8.90
2023-04-22T07:22:41.833Z,8.86
2023-04-22T07:24:00.109Z,8.93
2023-04-22T07:25:03.476Z,8.99
2023-04-22T07:26:07.609Z,9.17
2023-04-22T07:27:12.018Z,9.16
2023-04-22T07:28:16.315Z,9.06
2023-04-22T07:29:20.728Z,9.06
2023-04-22T07:30:24.975Z,9.14
2023-04-22T07:31:29.393Z,9.19
2023-04-22T07:32:33.605Z,9.41
2023-04-22T07:33:38.013Z,9.18
2023-04-22T07:34:45.457Z,9.23
2023-04-22T07:35:48.995Z,9.41
2023-04-22T07:36:53.177Z,9.41
2023-04-22T07:37:57.638Z,9.55
2023-04-22T07:39:01.956Z,9.54
2023-04-22T07:40:06.383Z,9.54
2023-04-22T07:41:10.797Z,9.46
2023-04-22T07:42:15.226Z,9.38
2023-04-22T07:43:19.540Z,9.40
2023-04-22T07:44:23.793Z,9.40
2023-04-22T07:45:28.352Z,9.55
2023-04-22T07:46:46.620Z,9.68
2023-04-22T07:47:49.800Z,9.63
2023-04-22T07:48:54.126Z,9.59
2023-04-22T07:49:58.296Z,9.41
2023-04-22T07:51:02.744Z,9.42
2023-04-22T07:52:07.138Z,9.48
2023-04-22T07:53:11.483Z,9.35
2023-04-22T07:54:15.756Z,9.25
2023-04-22T07:55:20.179Z,9.26
2023-04-22T07:56:24.563Z,9.30
2023-04-22T07:57:28.949Z,9.22
2023-04-22T07:58:33.363Z,9.36
2023-04-22T07:59:37.848Z,9.41
2023-04-22T08:00:42.108Z,9.41
2023-04-22T08:01:46.499Z,9.55
2023-04-22T08:02:51.040Z,9.65
2023-04-22T08:03:55.595Z,9.71
2023-04-22T08:04:59.666Z,9.78
2023-04-22T08:06:04.049Z,9.69
2023-04-22T08:07:29.841Z,9.81
2023-04-22T08:08:12.780Z,9.90
2023-04-22T08:09:17.290Z,9.96
2023-04-22T08:10:21.676Z,9.85
2023-04-22T08:11:26.017Z,9.67
2023-04-22T08:12:30.471Z,9.71
2023-04-22T08:13:34.807Z,9.73
2023-04-22T08:14:53.282Z,9.80
2023-04-22T08:15:56.680Z,9.88
2023-04-22T08:17:00.909Z,9.93
2023-04-22T08:18:05.354Z,9.96
2023-04-22T08:19:09.656Z,9.83
2023-04-22T08:20:17.084Z,9.93
2023-04-22T08:21:20.687Z,9.87
2023-04-22T08:22:28.112Z,9.92
2023-04-22T08:23:31.618Z,10.09
2023-04-22T08:24:35.968Z,10.18
2023-04-22T08:25:40.377Z,10.11
2023-04-22T08:26:44.753Z,9.95
2023-04-22T08:27:49.184Z,9.99
2023-04-22T08:28:53.592Z,10.11
2023-04-22T08:29:57.999Z,10.08
2023-04-22T08:31:02.442Z,10.15
2023-04-22T08:32:06.788Z,10.01
2023-04-22T08:33:11.194Z,10.00
2023-04-22T08:34:15.546Z,10.22
2023-04-22T08:35:19.914Z,10.30
2023-04-22T08:36:24.279Z,10.37
2023-04-22T08:37:28.687Z,10.28
2023-04-22T08:38:33.136Z,10.15
2023-04-22T08:39:37.706Z,10.14
2023-04-22T08:40:41.938Z,10.18
2023-04-22T08:41:46.469Z,10.34
2023-04-22T08:42:50.780Z,10.38
2023-04-22T08:45:22.562Z,10.45
2023-04-22T08:46:26.878Z,10.60
2023-04-22T08:47:31.218Z,10.46
2023-04-22T08:48:35.599Z,10.29
2023-04-22T08:49:40.208Z,10.28
2023-04-22T08:50:44.296Z,10.31
2023-04-22T08:51:48.719Z,10.43
2023-04-22T08:52:59.122Z,10.63
2023-04-22T08:54:02.210Z,10.56
2023-04-22T08:55:06.567Z,10.50
2023-04-22T08:56:10.985Z,10.57
2023-04-22T08:57:15.371Z,10.62
2023-04-22T08:58:19.799Z,10.71
2023-04-22T08:59:24.192Z,10.74
2023-04-22T09:00:28.604Z,10.79
2023-04-22T09:01:33.086Z,10.84
2023-04-22T09:02:37.420Z,10.89
2023-04-22T09:03:41.878Z,10.86
2023-04-22T09:04:46.190Z,10.71
2023-04-22T09:05:50.725Z,10.70
2023-04-22T09:06:55.082Z,10.46
2023-04-22T09:07:59.486Z,10.56
2023-04-22T09:09:03.959Z,10.69
2023-04-22T09:10:08.376Z,10.79
2023-04-22T09:11:12.788Z,10.85
2023-04-22T09:12:31.298Z,10.96
2023-04-22T09:13:34.682Z,10.86
2023-04-22T09:14:39.032Z,10.94
2023-04-22T09:15:43.446Z,10.85
2023-04-22T09:16:48.013Z,10.80
2023-04-22T09:17:52.352Z,11.11
2023-04-22T09:18:56.747Z,11.40
2023-04-22T09:20:01.124Z,11.29
2023-04-22T09:21:05.515Z,11.11
2023-04-22T09:22:15.935Z,11.28
2023-04-22T09:23:18.990Z,11.34
2023-04-22T09:24:23.332Z,11.43
2023-04-22T09:25:27.800Z,11.43
2023-04-22T09:26:32.211Z,11.29
2023-04-22T09:27:36.611Z,11.16
2023-04-22T09:28:40.988Z,11.21
2023-04-22T09:29:45.427Z,11.27
2023-04-22T09:30:49.796Z,11.26
2023-04-22T09:31:54.333Z,11.31
2023-04-22T09:32:58.767Z,11.24
2023-04-22T09:34:03.050Z,11.23
2023-04-22T09:35:07.485Z,11.42
2023-04-22T09:36:11.929Z,11.26
2023-04-22T09:37:16.352Z,11.34
2023-04-22T09:38:20.768Z,11.54
2023-04-22T09:39:28.090Z,11.79
2023-04-22T09:40:31.747Z,11.61
2023-04-22T09:41:36.193Z,11.64
2023-04-22T09:42:40.574Z,11.64
2023-04-22T09:43:45.012Z,11.65
2023-04-22T09:44:49.405Z,11.55
2023-04-22T09:45:53.834Z,11.54
2023-04-22T09:46:58.169Z,11.10
2023-04-22T09:48:02.637Z,11.20
2023-04-22T09:49:08.013Z,11.25
2023-04-22T09:50:12.018Z,11.17
2023-04-22T09:51:19.426Z,11.37
2023-04-22T09:52:22.979Z,11.59
2023-04-22T09:53:27.389Z,11.48
2023-04-22T09:54:31.785Z,11.39
2023-04-22T09:55:52.259Z,11.47
2023-04-22T09:56:55.738Z,11.52
2023-04-22T09:58:00.120Z,11.34
2023-04-22T09:59:04.480Z,11.35
2023-04-22T10:00:08.921Z,11.43
2023-04-22T10:01:13.379Z,11.61
2023-04-22T10:02:17.768Z,11.63
2023-04-22T10:03:22.198Z,11.59
2023-04-22T10:04:26.741Z,11.47
2023-04-22T10:05:31.001Z,11.64
2023-04-22T10:06:35.518Z,11.60
2023-04-22T10:07:39.902Z,11.31
2023-04-22T10:08:44.273Z,11.19
2023-04-22T10:09:48.678Z,11.18
2023-04-22T10:10:53.105Z,11.23
2023-04-22T10:11:57.420Z,11.27
2023-04-22T10:13:07.969Z,11.21
2023-04-22T10:14:10.984Z,11.29
2023-04-22T10:15:15.469Z,11.41
2023-04-22T10:16:19.877Z,11.49
2023-04-22T10:17:38.217Z,11.72
2023-04-22T10:18:55.571Z,11.85
2023-04-22T10:19:58.523Z,11.65
2023-04-22T10:21:02.866Z,11.52
2023-04-22T10:22:07.408Z,11.44
2023-04-22T10:23:11.717Z,11.55
2023-04-22T10:24:16.131Z,11.25
2023-04-22T10:25:20.540Z,11.35
2023-04-22T10:26:24.929Z,11.61
2023-04-22T10:27:29.363Z,11.70
2023-04-22T10:28:33.880Z,11.48
2023-04-22T10:29:38.596Z,11.60
2023-04-22T10:30:42.713Z,11.63
2023-04-22T10:31:47.140Z,11.44
2023-04-22T10:32:51.746Z,11.36
2023-04-22T10:33:56.091Z,11.43
2023-04-22T10:35:00.511Z,11.55
2023-04-22T10:36:04.894Z,11.53
2023-04-22T10:37:09.273Z,11.29
2023-04-22T10:38:27.720Z,11.35
2023-04-22T10:39:34.002Z,11.54
2023-04-22T10:40:37.489Z,11.48
2023-04-22T10:43:09.475Z,11.41
2023-04-22T10:44:13.819Z,11.41
2023-04-22T10:45:18.315Z,11.35
2023-04-22T10:46:28.775Z,11.47
2023-04-22T10:47:31.931Z,11.38
2023-04-22T10:48:36.244Z,11.42
2023-04-22T10:49:40.863Z,11.52
2023-04-22T10:50:45.190Z,11.57
2023-04-22T10:51:49.511Z,11.35
2023-04-22T10:52:53.975Z,11.36
2023-04-22T10:55:25.757Z,11.68
2023-04-22T10:56:51.739Z,11.63
2023-04-22T10:58:01.492Z,11.73
2023-04-22T10:59:04.797Z,11.55
2023-04-22T11:00:09.104Z,11.62
2023-04-22T11:01:13.480Z,11.58
2023-04-22T11:02:18.110Z,11.57
2023-04-22T11:03:22.459Z,11.07
2023-04-22T11:04:26.810Z,10.79
2023-04-22T11:05:31.152Z,10.64
2023-04-22T11:06:35.504Z,10.46
2023-04-22T11:07:40.058Z,10.60
2023-04-22T11:08:44.456Z,10.42
2023-04-22T11:09:48.796Z,10.58
2023-04-22T11:10:54.254Z,10.58
2023-04-22T11:11:58.235Z,10.79
2023-04-22T11:13:02.805Z,10.73
2023-04-22T11:14:07.193Z,10.88
2023-04-22T11:15:11.612Z,10.86
2023-04-22T11:16:16.124Z,10.77
2023-04-22T11:17:20.546Z,10.77
2023-04-22T11:18:24.934Z,10.57
2023-04-22T11:19:29.483Z,10.53
2023-04-22T11:20:34.015Z,10.53
2023-04-22T11:21:38.399Z,10.50
2023-04-22T11:22:42.863Z,10.30
2023-04-22T11:23:47.286Z,10.27
2023-04-22T11:24:51.649Z,10.32
2023-04-22T11:25:56.115Z,10.45
2023-04-22T11:27:00.558Z,10.40
2023-04-22T11:28:21.036Z,10.34
2023-04-22T11:29:22.283Z,10.46
2023-04-22T11:30:26.733Z,10.48
2023-04-22T11:31:37.200Z,10.41
2023-04-22T11:32:40.283Z,10.35
2023-04-22T11:33:44.666Z,10.35
2023-04-22T11:34:49.101Z,10.43
2023-04-22T11:35:53.516Z,10.56
2023-04-22T11:36:57.998Z,10.53
2023-04-22T11:38:02.371Z,10.64
2023-04-22T11:39:06.836Z,10.99
2023-04-22T11:40:21.691Z,11.13
2023-04-22T11:41:21.757Z,11.28
2023-04-22T11:42:24.862Z,11.44
2023-04-22T11:43:29.269Z,11.59
2023-04-22T11:44:33.721Z,11.67
2023-04-22T11:45:38.216Z,11.67
2023-04-22T11:46:42.624Z,11.66
2023-04-22T11:47:47.046Z,11.52
2023-04-22T11:48:51.543Z,11.52
2023-04-22T11:50:10.006Z,11.57
2023-04-22T11:51:13.410Z,11.60
2023-04-22T11:52:19.111Z,11.58
2023-04-22T11:53:22.123Z,11.42
2023-04-22T11:54:26.541Z,11.60
2023-04-22T11:55:30.970Z,11.94
2023-04-22T11:56:35.431Z,12.20
2023-04-22T11:57:39.898Z,12.03
2023-04-22T11:58:44.272Z,12.01
2023-04-22T11:59:48.773Z,12.03
2023-04-22T12:00:53.226Z,12.18
2023-04-22T12:01:57.743Z,12.19
2023-04-22T12:03:02.320Z,12.24
2023-04-22T12:04:06.828Z,12.06
2023-04-22T12:05:11.208Z,11.98
2023-04-22T12:06:16.560Z,11.76
2023-04-22T12:07:20.693Z,12.11
2023-04-22T12:08:25.047Z,12.13
2023-04-22T12:09:29.445Z,12.37
2023-04-22T12:10:34.031Z,12.63
2023-04-22T12:11:38.353Z,12.16
2023-04-22T12:12:56.892Z,12.48
2023-04-22T12:14:00.305Z,12.62
2023-04-22T12:15:04.721Z,12.74
2023-04-22T12:16:09.151Z,12.43
2023-04-22T12:17:13.759Z,12.17
2023-04-22T12:18:32.145Z,12.10
2023-04-22T12:19:35.375Z,12.33
2023-04-22T12:20:39.831Z,12.56
2023-04-22T12:21:44.213Z,12.51
2023-04-22T12:22:48.771Z,11.96
2023-04-22T12:23:53.208Z,12.22
2023-04-22T12:24:57.556Z,12.14
2023-04-22T12:26:16.007Z,12.27
2023-04-22T12:27:19.189Z,12.34
2023-04-22T12:28:23.541Z,12.18
2023-04-22T12:29:27.953Z,12.01
2023-04-22T12:30:32.356Z,12.20
2023-04-22T12:31:36.975Z,12.29
2023-04-22T12:32:41.264Z,12.63
2023-04-22T12:33:45.714Z,12.45
2023-04-22T12:34:50.103Z,12.31
2023-04-22T12:35:54.605Z,12.18
2023-04-22T12:36:59.071Z,12.05
2023-04-22T12:38:03.552Z,12.24
2023-04-22T12:39:22.127Z,12.34
2023-04-22T12:40:25.655Z,12.26
2023-04-22T12:41:29.995Z,12.21
2023-04-22T12:42:34.457Z,12.28
2023-04-22T12:43:53.034Z,12.47
2023-04-22T12:44:56.287Z,12.37
2023-04-22T12:46:00.770Z,12.32
2023-04-22T12:47:05.251Z,12.62
2023-04-22T12:48:09.703Z,12.66
2023-04-22T12:49:14.167Z,12.85
2023-04-22T12:50:32.791Z,12.76
2023-04-22T12:51:36.441Z,12.63
2023-04-22T12:52:40.923Z,12.70
2023-04-22T12:53:45.497Z,12.66
2023-04-22T12:54:49.961Z,12.66
2023-04-22T12:55:54.404Z,12.70
2023-04-22T12:56:58.861Z,12.60
2023-04-22T12:58:03.302Z,12.75
2023-04-22T12:59:07.850Z,13.06
2023-04-22T13:00:12.220Z,13.07
2023-04-22T13:01:16.845Z,12.68
2023-04-22T13:02:21.274Z,12.76
2023-04-22T13:03:39.856Z,12.77
2023-04-22T13:04:43.266Z,12.58
2023-04-22T13:05:50.620Z,12.69
2023-04-22T13:06:54.250Z,12.83
2023-04-22T13:08:06.622Z,12.91
2023-04-22T13:09:03.197Z,12.86
2023-04-22T13:10:07.623Z,12.76
2023-04-22T13:11:12.243Z,12.65
2023-04-22T13:12:16.620Z,12.67
2023-04-22T13:13:21.098Z,12.42
2023-04-22T13:14:25.674Z,12.52
2023-04-22T13:15:30.006Z,12.55
2023-04-22T13:16:34.825Z,12.68
2023-04-22T13:17:39.018Z,12.50
2023-04-22T13:18:43.530Z,12.39
2023-04-22T13:19:48.066Z,12.59
2023-04-22T13:20:52.473Z,12.36
2023-04-22T13:21:57.006Z,12.36
2023-04-22T13:23:07.443Z,12.51
2023-04-22T13:24:10.658Z,12.76
2023-04-22T13:25:15.067Z,12.77
2023-04-22T13:26:19.591Z,12.48
2023-04-22T13:27:24.001Z,12.60
2023-04-22T13:28:28.461Z,12.56
2023-04-22T13:29:32.995Z,12.65
2023-04-22T13:30:37.413Z,12.52
2023-04-22T13:31:41.896Z,12.58
2023-04-22T13:32:46.409Z,12.47
2023-04-22T13:33:50.850Z,12.28
2023-04-22T13:34:55.319Z,12.45
2023-04-22T13:35:59.765Z,12.37
2023-04-22T13:37:04.213Z,12.46
2023-04-22T13:38:08.627Z,12.32
2023-04-22T13:39:13.157Z,12.26
2023-04-22T13:40:17.624Z,12.08
2023-04-22T13:41:22.040Z,12.05
2023-04-22T13:42:26.492Z,11.91
2023-04-22T13:43:45.065Z,12.01
2023-04-22T13:44:48.561Z,11.80
2023-04-22T13:45:53.008Z,11.77
2023-04-22T13:46:57.383Z,11.81
2023-04-22T13:48:01.917Z,11.96
2023-04-22T13:49:06.319Z,11.98
2023-04-22T13:50:13.779Z,11.62
2023-04-22T13:51:31.401Z,11.46
2023-04-22T13:52:34.935Z,11.52
2023-04-22T13:53:39.292Z,11.53
2023-04-22T13:54:57.752Z,11.42
2023-04-22T13:56:01.087Z,11.55
2023-04-22T13:57:19.528Z,11.67
2023-04-22T13:58:22.828Z,11.88
2023-04-22T13:59:30.248Z,11.91
2023-04-22T14:00:33.844Z,11.96
2023-04-22T14:01:38.380Z,11.95
2023-04-22T14:02:42.733Z,12.06
2023-04-22T14:03:47.213Z,12.09
2023-04-22T14:04:51.575Z,12.00
2023-04-22T14:06:02.156Z,11.83
2023-04-22T14:07:05.299Z,11.72
2023-04-22T14:08:09.670Z,11.76
2023-04-22T14:09:14.176Z,11.81
2023-04-22T14:10:18.616Z,11.66
2023-04-22T14:11:37.189Z,11.26
2023-04-22T14:12:40.559Z,11.50
2023-04-22T14:13:44.962Z,11.58
2023-04-22T14:14:49.384Z,11.54
2023-04-22T14:15:53.826Z,11.63
2023-04-22T14:16:58.264Z,11.47
2023-04-22T14:18:02.664Z,11.38